sensor_id;sensor_type;location;lat;lon;timestamp;temperature;humidity
30694;DHT22;17446;48.022;-1.740;2023-12-20T00:01:46;10.10;99.90
30694;DHT22;17446;48.022;-1.740;2023-12-20T00:04:11;10.10;99.90
30694;DHT22;17446;48.022;-1.740;2023-12-20T00:06:37;10.10;99.90
30694;DHT22;17446;48.022;-1.740;2023-12-20T00:09:03;10.00;99.90
30694;DHT22;17446;48.022;-1.740;2023-12-20T00:11:28;10.00;99.90
30694;DHT22;17446;48.022;-1.740;2023-12-20T00:13:54;9.90;99.90
30694;DHT22;17446;48.022;-1.740;2023-12-20T00:16:19;9.90;99.90
30694;DHT22;17446;48.022;-1.740;2023-12-20T00:18:45;9.80;99.90
30694;DHT22;17446;48.022;-1.740;2023-12-20T00:21:11;9.80;99.90
30694;DHT22;17446;48.022;-1.740;2023-12-20T00:23:36;9.70;99.90
30694;DHT22;17446;48.022;-1.740;2023-12-20T00:26:02;9.60;99.90
30694;DHT22;17446;48.022;-1.740;2023-12-20T00:28:28;9.60;99.90
30694;DHT22;17446;48.022;-1.740;2023-12-20T00:30:53;9.50;99.90
30694;DHT22;17446;48.022;-1.740;2023-12-20T00:33:19;9.50;99.90
30694;DHT22;17446;48.022;-1.740;2023-12-20T00:35:44;9.50;99.90
30694;DHT22;17446;48.022;-1.740;2023-12-20T00:38:10;9.40;99.90
30694;DHT22;17446;48.022;-1.740;2023-12-20T00:40:37;9.40;99.90
30694;DHT22;17446;48.022;-1.740;2023-12-20T00:43:02;9.30;99.90
30694;DHT22;17446;48.022;-1.740;2023-12-20T00:45:28;9.30;99.90
30694;DHT22;17446;48.022;-1.740;2023-12-20T00:47:54;9.20;99.90
30694;DHT22;17446;48.022;-1.740;2023-12-20T00:50:19;9.20;99.90
30694;DHT22;17446;48.022;-1.740;2023-12-20T00:52:47;9.10;99.90
30694;DHT22;17446;48.022;-1.740;2023-12-20T00:55:13;9.10;99.90
30694;DHT22;17446;48.022;-1.740;2023-12-20T00:57:39;9.00;99.90
30694;DHT22;17446;48.022;-1.740;2023-12-20T01:00:05;9.00;99.90
30694;DHT22;17446;48.022;-1.740;2023-12-20T01:02:31;9.00;99.90
30694;DHT22;17446;48.022;-1.740;2023-12-20T01:04:56;8.90;99.90
30694;DHT22;17446;48.022;-1.740;2023-12-20T01:07:22;8.90;99.90
30694;DHT22;17446;48.022;-1.740;2023-12-20T01:09:48;8.90;99.90
30694;DHT22;17446;48.022;-1.740;2023-12-20T01:12:13;8.90;99.90
30694;DHT22;17446;48.022;-1.740;2023-12-20T01:14:39;8.90;99.90
30694;DHT22;17446;48.022;-1.740;2023-12-20T01:17:05;8.80;99.90
30694;DHT22;17446;48.022;-1.740;2023-12-20T01:19:30;8.80;99.90
30694;DHT22;17446;48.022;-1.740;2023-12-20T01:21:56;8.80;99.90
30694;DHT22;17446;48.022;-1.740;2023-12-20T01:24:21;8.70;99.90
30694;DHT22;17446;48.022;-1.740;2023-12-20T01:26:47;8.70;99.90
30694;DHT22;17446;48.022;-1.740;2023-12-20T01:29:13;8.80;99.90
30694;DHT22;17446;48.022;-1.740;2023-12-20T01:31:39;8.80;99.90
30694;DHT22;17446;48.022;-1.740;2023-12-20T01:34:06;8.80;99.90
30694;DHT22;17446;48.022;-1.740;2023-12-20T01:36:31;8.90;99.90
30694;DHT22;17446;48.022;-1.740;2023-12-20T01:38:57;8.90;99.90
30694;DHT22;17446;48.022;-1.740;2023-12-20T01:41:23;8.90;99.90
30694;DHT22;17446;48.022;-1.740;2023-12-20T01:43:48;9.00;99.90
30694;DHT22;17446;48.022;-1.740;2023-12-20T01:46:14;9.10;99.90
30694;DHT22;17446;48.022;-1.740;2023-12-20T01:48:41;9.10;99.90
30694;DHT22;17446;48.022;-1.740;2023-12-20T01:51:07;9.10;99.90
30694;DHT22;17446;48.022;-1.740;2023-12-20T01:53:32;9.20;99.90
30694;DHT22;17446;48.022;-1.740;2023-12-20T01:55:59;9.30;99.90
30694;DHT22;17446;48.022;-1.740;2023-12-20T01:58:25;9.30;99.90
30694;DHT22;17446;48.022;-1.740;2023-12-20T02:00:51;9.40;99.90
30694;DHT22;17446;48.022;-1.740;2023-12-20T02:03:17;9.40;99.90
30694;DHT22;17446;48.022;-1.740;2023-12-20T02:05:44;9.50;99.90
30694;DHT22;17446;48.022;-1.740;2023-12-20T02:08:10;9.50;99.90
30694;DHT22;17446;48.022;-1.740;2023-12-20T02:10:36;9.50;99.90
30694;DHT22;17446;48.022;-1.740;2023-12-20T02:13:02;9.50;99.90
30694;DHT22;17446;48.022;-1.740;2023-12-20T02:15:28;9.50;99.90
30694;DHT22;17446;48.022;-1.740;2023-12-20T02:17:54;9.50;99.90
30694;DHT22;17446;48.022;-1.740;2023-12-20T02:20:20;9.50;99.90
30694;DHT22;17446;48.022;-1.740;2023-12-20T02:22:45;9.40;99.90
30694;DHT22;17446;48.022;-1.740;2023-12-20T02:25:11;9.40;99.90
30694;DHT22;17446;48.022;-1.740;2023-12-20T02:27:37;9.30;99.90
30694;DHT22;17446;48.022;-1.740;2023-12-20T02:30:04;9.30;99.90
30694;DHT22;17446;48.022;-1.740;2023-12-20T02:32:29;9.30;99.90
30694;DHT22;17446;48.022;-1.740;2023-12-20T02:34:55;9.20;99.90
30694;DHT22;17446;48.022;-1.740;2023-12-20T02:37:21;9.10;99.90
30694;DHT22;17446;48.022;-1.740;2023-12-20T02:39:47;9.10;99.90
30694;DHT22;17446;48.022;-1.740;2023-12-20T02:42:13;9.00;99.90
30694;DHT22;17446;48.022;-1.740;2023-12-20T02:44:38;9.00;99.90
30694;DHT22;17446;48.022;-1.740;2023-12-20T02:47:04;9.00;99.90
30694;DHT22;17446;48.022;-1.740;2023-12-20T02:49:30;9.00;99.90
30694;DHT22;17446;48.022;-1.740;2023-12-20T02:51:55;8.90;99.90
30694;DHT22;17446;48.022;-1.740;2023-12-20T02:54:21;8.90;99.90
30694;DHT22;17446;48.022;-1.740;2023-12-20T02:56:47;8.90;99.90
30694;DHT22;17446;48.022;-1.740;2023-12-20T02:59:13;8.90;99.90
30694;DHT22;17446;48.022;-1.740;2023-12-20T03:01:44;8.90;99.90
30694;DHT22;17446;48.022;-1.740;2023-12-20T03:04:10;8.90;99.90
30694;DHT22;17446;48.022;-1.740;2023-12-20T03:06:35;9.00;99.90
30694;DHT22;17446;48.022;-1.740;2023-12-20T03:09:01;9.00;99.90
30694;DHT22;17446;48.022;-1.740;2023-12-20T03:11:27;9.10;99.90
30694;DHT22;17446;48.022;-1.740;2023-12-20T03:13:53;9.10;99.90
30694;DHT22;17446;48.022;-1.740;2023-12-20T03:16:19;9.10;99.90
30694;DHT22;17446;48.022;-1.740;2023-12-20T03:18:45;9.10;99.90
30694;DHT22;17446;48.022;-1.740;2023-12-20T03:21:10;9.10;99.90
30694;DHT22;17446;48.022;-1.740;2023-12-20T03:23:36;9.20;99.90
30694;DHT22;17446;48.022;-1.740;2023-12-20T03:26:01;9.20;99.90
30694;DHT22;17446;48.022;-1.740;2023-12-20T03:28:27;9.20;99.90
30694;DHT22;17446;48.022;-1.740;2023-12-20T03:30:53;9.20;99.90
30694;DHT22;17446;48.022;-1.740;2023-12-20T03:33:19;9.20;99.90
30694;DHT22;17446;48.022;-1.740;2023-12-20T03:35:44;9.20;99.90
30694;DHT22;17446;48.022;-1.740;2023-12-20T03:38:10;9.20;99.90
30694;DHT22;17446;48.022;-1.740;2023-12-20T03:40:36;9.20;99.90
30694;DHT22;17446;48.022;-1.740;2023-12-20T03:43:01;9.20;99.90
30694;DHT22;17446;48.022;-1.740;2023-12-20T03:45:27;9.30;99.90
30694;DHT22;17446;48.022;-1.740;2023-12-20T03:47:53;9.30;99.90
30694;DHT22;17446;48.022;-1.740;2023-12-20T03:50:28;9.30;99.90
30694;DHT22;17446;48.022;-1.740;2023-12-20T03:52:54;9.30;99.90
30694;DHT22;17446;48.022;-1.740;2023-12-20T03:55:19;9.30;99.90
30694;DHT22;17446;48.022;-1.740;2023-12-20T03:57:45;9.30;99.90
30694;DHT22;17446;48.022;-1.740;2023-12-20T04:00:11;9.30;99.90
30694;DHT22;17446;48.022;-1.740;2023-12-20T04:02:41;9.30;99.90
30694;DHT22;17446;48.022;-1.740;2023-12-20T04:05:08;9.30;99.90
30694;DHT22;17446;48.022;-1.740;2023-12-20T04:07:34;9.30;99.90
30694;DHT22;17446;48.022;-1.740;2023-12-20T04:10:00;9.20;99.90
30694;DHT22;17446;48.022;-1.740;2023-12-20T04:12:28;9.30;99.90
30694;DHT22;17446;48.022;-1.740;2023-12-20T04:14:53;9.20;99.90
30694;DHT22;17446;48.022;-1.740;2023-12-20T04:17:20;9.30;99.90
30694;DHT22;17446;48.022;-1.740;2023-12-20T04:19:45;9.20;99.90
30694;DHT22;17446;48.022;-1.740;2023-12-20T04:22:11;9.20;99.90
30694;DHT22;17446;48.022;-1.740;2023-12-20T04:24:36;9.20;99.90
30694;DHT22;17446;48.022;-1.740;2023-12-20T04:27:02;9.30;99.90
30694;DHT22;17446;48.022;-1.740;2023-12-20T04:29:28;9.30;99.90
30694;DHT22;17446;48.022;-1.740;2023-12-20T04:31:54;9.30;99.90
30694;DHT22;17446;48.022;-1.740;2023-12-20T04:34:20;9.30;99.90
30694;DHT22;17446;48.022;-1.740;2023-12-20T04:36:46;9.40;99.90
30694;DHT22;17446;48.022;-1.740;2023-12-20T04:39:13;9.40;99.90
30694;DHT22;17446;48.022;-1.740;2023-12-20T04:41:39;9.40;99.90
30694;DHT22;17446;48.022;-1.740;2023-12-20T04:44:06;9.40;99.90
30694;DHT22;17446;48.022;-1.740;2023-12-20T04:46:32;9.40;99.90
30694;DHT22;17446;48.022;-1.740;2023-12-20T04:48:58;9.50;99.90
30694;DHT22;17446;48.022;-1.740;2023-12-20T04:51:23;9.30;99.90
30694;DHT22;17446;48.022;-1.740;2023-12-20T04:53:49;9.30;99.90
30694;DHT22;17446;48.022;-1.740;2023-12-20T04:56:15;9.30;99.90
30694;DHT22;17446;48.022;-1.740;2023-12-20T04:58:42;9.30;99.90
30694;DHT22;17446;48.022;-1.740;2023-12-20T05:01:08;9.20;99.90
30694;DHT22;17446;48.022;-1.740;2023-12-20T05:03:34;9.20;99.90
30694;DHT22;17446;48.022;-1.740;2023-12-20T05:06:00;9.30;99.90
30694;DHT22;17446;48.022;-1.740;2023-12-20T05:08:26;9.30;99.90
30694;DHT22;17446;48.022;-1.740;2023-12-20T05:10:56;9.30;99.90
30694;DHT22;17446;48.022;-1.740;2023-12-20T05:13:22;9.30;99.90
30694;DHT22;17446;48.022;-1.740;2023-12-20T05:15:47;9.40;99.90
30694;DHT22;17446;48.022;-1.740;2023-12-20T05:18:13;9.40;99.90
30694;DHT22;17446;48.022;-1.740;2023-12-20T05:20:39;9.50;99.90
30694;DHT22;17446;48.022;-1.740;2023-12-20T05:23:05;9.50;99.90
30694;DHT22;17446;48.022;-1.740;2023-12-20T05:25:31;9.50;99.90
30694;DHT22;17446;48.022;-1.740;2023-12-20T05:27:57;9.50;99.90
30694;DHT22;17446;48.022;-1.740;2023-12-20T05:30:22;9.50;99.90
30694;DHT22;17446;48.022;-1.740;2023-12-20T05:32:48;9.40;99.90
30694;DHT22;17446;48.022;-1.740;2023-12-20T05:35:14;9.40;99.90
30694;DHT22;17446;48.022;-1.740;2023-12-20T05:37:40;9.30;99.90
30694;DHT22;17446;48.022;-1.740;2023-12-20T05:40:06;9.30;99.90
30694;DHT22;17446;48.022;-1.740;2023-12-20T05:42:36;9.30;99.90
30694;DHT22;17446;48.022;-1.740;2023-12-20T05:45:01;9.20;99.90
30694;DHT22;17446;48.022;-1.740;2023-12-20T05:47:27;9.10;99.90
30694;DHT22;17446;48.022;-1.740;2023-12-20T05:49:53;9.10;99.90
30694;DHT22;17446;48.022;-1.740;2023-12-20T05:52:18;9.10;99.90
30694;DHT22;17446;48.022;-1.740;2023-12-20T05:54:44;9.00;99.90
30694;DHT22;17446;48.022;-1.740;2023-12-20T05:57:09;8.90;99.90
30694;DHT22;17446;48.022;-1.740;2023-12-20T05:59:35;8.90;99.90
30694;DHT22;17446;48.022;-1.740;2023-12-20T06:02:01;8.80;99.90
30694;DHT22;17446;48.022;-1.740;2023-12-20T06:04:26;8.80;99.90
30694;DHT22;17446;48.022;-1.740;2023-12-20T06:06:52;8.80;99.90
30694;DHT22;17446;48.022;-1.740;2023-12-20T06:09:17;8.80;99.90
30694;DHT22;17446;48.022;-1.740;2023-12-20T06:11:43;8.80;99.90
30694;DHT22;17446;48.022;-1.740;2023-12-20T06:14:08;8.80;99.90
30694;DHT22;17446;48.022;-1.740;2023-12-20T06:16:34;8.80;99.90
30694;DHT22;17446;48.022;-1.740;2023-12-20T06:18:59;8.80;99.90
30694;DHT22;17446;48.022;-1.740;2023-12-20T06:21:25;8.80;99.90
30694;DHT22;17446;48.022;-1.740;2023-12-20T06:23:51;8.90;99.90
30694;DHT22;17446;48.022;-1.740;2023-12-20T06:26:16;8.90;99.90
30694;DHT22;17446;48.022;-1.740;2023-12-20T06:28:42;8.90;99.90
30694;DHT22;17446;48.022;-1.740;2023-12-20T06:31:08;9.00;99.90
30694;DHT22;17446;48.022;-1.740;2023-12-20T06:33:33;9.00;99.90
30694;DHT22;17446;48.022;-1.740;2023-12-20T06:35:59;9.00;99.90
30694;DHT22;17446;48.022;-1.740;2023-12-20T06:38:25;9.10;99.90
30694;DHT22;17446;48.022;-1.740;2023-12-20T06:40:51;9.10;99.90
30694;DHT22;17446;48.022;-1.740;2023-12-20T06:43:16;9.10;99.90
30694;DHT22;17446;48.022;-1.740;2023-12-20T06:45:42;9.10;99.90
30694;DHT22;17446;48.022;-1.740;2023-12-20T06:48:07;9.10;99.90
30694;DHT22;17446;48.022;-1.740;2023-12-20T06:50:33;9.10;99.90
30694;DHT22;17446;48.022;-1.740;2023-12-20T06:52:59;9.00;99.90
30694;DHT22;17446;48.022;-1.740;2023-12-20T06:55:24;9.00;99.90
30694;DHT22;17446;48.022;-1.740;2023-12-20T06:57:50;8.90;99.90
30694;DHT22;17446;48.022;-1.740;2023-12-20T07:00:16;8.90;99.90
30694;DHT22;17446;48.022;-1.740;2023-12-20T07:02:41;8.90;99.90
30694;DHT22;17446;48.022;-1.740;2023-12-20T07:05:07;8.90;99.90
30694;DHT22;17446;48.022;-1.740;2023-12-20T07:07:33;8.90;99.90
30694;DHT22;17446;48.022;-1.740;2023-12-20T07:09:58;8.90;99.90
30694;DHT22;17446;48.022;-1.740;2023-12-20T07:12:24;9.00;99.90
30694;DHT22;17446;48.022;-1.740;2023-12-20T07:14:49;9.00;99.90
30694;DHT22;17446;48.022;-1.740;2023-12-20T07:17:15;9.00;99.90
30694;DHT22;17446;48.022;-1.740;2023-12-20T07:19:41;9.00;99.90
30694;DHT22;17446;48.022;-1.740;2023-12-20T07:22:07;9.00;99.90
30694;DHT22;17446;48.022;-1.740;2023-12-20T07:24:33;9.00;99.90
30694;DHT22;17446;48.022;-1.740;2023-12-20T07:27:02;9.00;99.90
30694;DHT22;17446;48.022;-1.740;2023-12-20T07:29:28;8.90;99.90
30694;DHT22;17446;48.022;-1.740;2023-12-20T07:31:54;8.90;99.90
30694;DHT22;17446;48.022;-1.740;2023-12-20T07:34:20;8.90;99.90
30694;DHT22;17446;48.022;-1.740;2023-12-20T07:36:46;8.90;99.90
30694;DHT22;17446;48.022;-1.740;2023-12-20T07:39:12;8.80;99.90
30694;DHT22;17446;48.022;-1.740;2023-12-20T07:41:38;8.90;99.90
30694;DHT22;17446;48.022;-1.740;2023-12-20T07:44:04;8.80;99.90
30694;DHT22;17446;48.022;-1.740;2023-12-20T07:46:30;8.80;99.90
30694;DHT22;17446;48.022;-1.740;2023-12-20T07:48:55;8.90;99.90
30694;DHT22;17446;48.022;-1.740;2023-12-20T07:51:21;8.90;99.90
30694;DHT22;17446;48.022;-1.740;2023-12-20T07:53:47;8.80;99.90
30694;DHT22;17446;48.022;-1.740;2023-12-20T07:56:19;8.90;99.90
30694;DHT22;17446;48.022;-1.740;2023-12-20T07:58:45;9.00;99.90
30694;DHT22;17446;48.022;-1.740;2023-12-20T08:01:12;9.00;99.90
30694;DHT22;17446;48.022;-1.740;2023-12-20T08:03:38;9.00;99.90
30694;DHT22;17446;48.022;-1.740;2023-12-20T08:06:04;9.00;99.90
30694;DHT22;17446;48.022;-1.740;2023-12-20T08:08:29;9.00;99.90
30694;DHT22;17446;48.022;-1.740;2023-12-20T08:10:55;9.00;99.90
30694;DHT22;17446;48.022;-1.740;2023-12-20T08:13:23;9.00;99.90
30694;DHT22;17446;48.022;-1.740;2023-12-20T08:15:51;9.00;99.90
30694;DHT22;17446;48.022;-1.740;2023-12-20T08:18:17;8.90;99.90
30694;DHT22;17446;48.022;-1.740;2023-12-20T08:20:43;8.90;99.90
30694;DHT22;17446;48.022;-1.740;2023-12-20T08:23:09;8.90;99.90
30694;DHT22;17446;48.022;-1.740;2023-12-20T08:25:34;8.80;99.90
30694;DHT22;17446;48.022;-1.740;2023-12-20T08:28:02;8.80;99.90
30694;DHT22;17446;48.022;-1.740;2023-12-20T08:30:28;8.80;99.90
30694;DHT22;17446;48.022;-1.740;2023-12-20T08:32:55;8.80;99.90
30694;DHT22;17446;48.022;-1.740;2023-12-20T08:35:20;8.80;99.90
30694;DHT22;17446;48.022;-1.740;2023-12-20T08:37:46;8.80;99.90
30694;DHT22;17446;48.022;-1.740;2023-12-20T08:40:11;8.70;99.90
30694;DHT22;17446;48.022;-1.740;2023-12-20T08:42:37;8.70;99.90
30694;DHT22;17446;48.022;-1.740;2023-12-20T08:45:03;8.70;99.90
30694;DHT22;17446;48.022;-1.740;2023-12-20T08:47:30;8.70;99.90
30694;DHT22;17446;48.022;-1.740;2023-12-20T08:49:55;8.70;99.90
30694;DHT22;17446;48.022;-1.740;2023-12-20T08:52:26;8.70;99.90
30694;DHT22;17446;48.022;-1.740;2023-12-20T08:54:55;8.70;99.90
30694;DHT22;17446;48.022;-1.740;2023-12-20T08:57:21;8.70;99.90
30694;DHT22;17446;48.022;-1.740;2023-12-20T08:59:47;8.70;99.90
30694;DHT22;17446;48.022;-1.740;2023-12-20T09:02:13;8.70;99.90
30694;DHT22;17446;48.022;-1.740;2023-12-20T09:04:39;8.70;99.90
30694;DHT22;17446;48.022;-1.740;2023-12-20T09:07:04;8.80;99.90
30694;DHT22;17446;48.022;-1.740;2023-12-20T09:09:30;8.80;99.90
30694;DHT22;17446;48.022;-1.740;2023-12-20T09:11:57;8.90;99.90
30694;DHT22;17446;48.022;-1.740;2023-12-20T09:14:23;8.90;99.90
30694;DHT22;17446;48.022;-1.740;2023-12-20T09:16:48;9.00;99.90
30694;DHT22;17446;48.022;-1.740;2023-12-20T09:19:16;9.10;99.90
30694;DHT22;17446;48.022;-1.740;2023-12-20T09:21:42;9.10;99.90
30694;DHT22;17446;48.022;-1.740;2023-12-20T09:24:08;9.20;99.90
30694;DHT22;17446;48.022;-1.740;2023-12-20T09:26:35;9.30;99.90
30694;DHT22;17446;48.022;-1.740;2023-12-20T09:29:00;9.30;99.90
30694;DHT22;17446;48.022;-1.740;2023-12-20T09:31:26;9.40;99.90
30694;DHT22;17446;48.022;-1.740;2023-12-20T09:33:52;9.40;99.90
30694;DHT22;17446;48.022;-1.740;2023-12-20T09:36:18;9.50;99.90
30694;DHT22;17446;48.022;-1.740;2023-12-20T09:38:44;9.40;99.90
30694;DHT22;17446;48.022;-1.740;2023-12-20T09:41:09;9.50;99.90
30694;DHT22;17446;48.022;-1.740;2023-12-20T09:43:37;9.50;99.90
30694;DHT22;17446;48.022;-1.740;2023-12-20T09:46:06;9.60;99.90
30694;DHT22;17446;48.022;-1.740;2023-12-20T09:48:33;9.60;99.90
30694;DHT22;17446;48.022;-1.740;2023-12-20T09:50:59;9.60;99.90
30694;DHT22;17446;48.022;-1.740;2023-12-20T09:53:25;9.70;99.90
30694;DHT22;17446;48.022;-1.740;2023-12-20T09:55:58;9.70;99.90
30694;DHT22;17446;48.022;-1.740;2023-12-20T09:58:27;9.70;99.90
30694;DHT22;17446;48.022;-1.740;2023-12-20T10:00:54;9.80;99.90
30694;DHT22;17446;48.022;-1.740;2023-12-20T10:03:24;9.80;99.90
30694;DHT22;17446;48.022;-1.740;2023-12-20T10:05:54;9.80;99.90
30694;DHT22;17446;48.022;-1.740;2023-12-20T10:08:21;9.80;99.90
30694;DHT22;17446;48.022;-1.740;2023-12-20T10:10:47;9.90;99.90
30694;DHT22;17446;48.022;-1.740;2023-12-20T10:13:13;10.00;99.90
30694;DHT22;17446;48.022;-1.740;2023-12-20T10:15:40;10.00;99.90
30694;DHT22;17446;48.022;-1.740;2023-12-20T10:18:06;10.10;99.90
30694;DHT22;17446;48.022;-1.740;2023-12-20T10:20:32;10.20;99.90
30694;DHT22;17446;48.022;-1.740;2023-12-20T10:22:59;10.30;99.90
30694;DHT22;17446;48.022;-1.740;2023-12-20T10:25:26;10.40;99.90
30694;DHT22;17446;48.022;-1.740;2023-12-20T10:28:10;10.50;99.90
30694;DHT22;17446;48.022;-1.740;2023-12-20T10:30:36;10.50;99.90
30694;DHT22;17446;48.022;-1.740;2023-12-20T10:33:01;10.60;99.90
30694;DHT22;17446;48.022;-1.740;2023-12-20T10:35:27;10.60;99.90
30694;DHT22;17446;48.022;-1.740;2023-12-20T10:37:55;10.60;99.90
30694;DHT22;17446;48.022;-1.740;2023-12-20T10:40:22;10.60;99.90
30694;DHT22;17446;48.022;-1.740;2023-12-20T10:42:48;10.60;99.90
30694;DHT22;17446;48.022;-1.740;2023-12-20T10:45:15;10.60;99.90
30694;DHT22;17446;48.022;-1.740;2023-12-20T10:47:44;10.60;99.90
30694;DHT22;17446;48.022;-1.740;2023-12-20T10:50:11;10.70;99.90
30694;DHT22;17446;48.022;-1.740;2023-12-20T10:52:38;10.70;99.90
30694;DHT22;17446;48.022;-1.740;2023-12-20T10:55:04;10.70;99.90
30694;DHT22;17446;48.022;-1.740;2023-12-20T10:57:30;10.80;99.90
30694;DHT22;17446;48.022;-1.740;2023-12-20T11:00:00;10.80;99.90
30694;DHT22;17446;48.022;-1.740;2023-12-20T11:02:32;10.90;99.90
30694;DHT22;17446;48.022;-1.740;2023-12-20T11:05:10;10.90;99.90
30694;DHT22;17446;48.022;-1.740;2023-12-20T11:07:49;11.00;99.90
30694;DHT22;17446;48.022;-1.740;2023-12-20T11:10:20;11.00;99.90
30694;DHT22;17446;48.022;-1.740;2023-12-20T11:12:52;11.10;99.90
30694;DHT22;17446;48.022;-1.740;2023-12-20T11:15:19;11.20;99.90
30694;DHT22;17446;48.022;-1.740;2023-12-20T11:17:45;11.20;99.90
30694;DHT22;17446;48.022;-1.740;2023-12-20T11:20:12;11.20;99.90
30694;DHT22;17446;48.022;-1.740;2023-12-20T11:22:40;11.30;99.90
30694;DHT22;17446;48.022;-1.740;2023-12-20T11:25:17;11.40;99.90
30694;DHT22;17446;48.022;-1.740;2023-12-20T11:27:43;11.40;99.90
30694;DHT22;17446;48.022;-1.740;2023-12-20T11:30:10;11.40;99.90
30694;DHT22;17446;48.022;-1.740;2023-12-20T11:32:37;11.50;99.90
30694;DHT22;17446;48.022;-1.740;2023-12-20T11:37:38;11.60;99.90
30694;DHT22;17446;48.022;-1.740;2023-12-20T11:40:11;11.60;99.90
30694;DHT22;17446;48.022;-1.740;2023-12-20T11:45:15;11.60;99.90
30694;DHT22;17446;48.022;-1.740;2023-12-20T11:47:42;11.60;99.90
30694;DHT22;17446;48.022;-1.740;2023-12-20T11:50:08;11.60;99.90
30694;DHT22;17446;48.022;-1.740;2023-12-20T11:52:35;11.60;99.90
30694;DHT22;17446;48.022;-1.740;2023-12-20T11:55:00;11.70;99.90
30694;DHT22;17446;48.022;-1.740;2023-12-20T11:57:26;11.70;99.90
30694;DHT22;17446;48.022;-1.740;2023-12-20T11:59:51;11.70;99.90
30694;DHT22;17446;48.022;-1.740;2023-12-20T12:02:17;11.80;99.90
30694;DHT22;17446;48.022;-1.740;2023-12-20T12:04:43;11.80;99.90
30694;DHT22;17446;48.022;-1.740;2023-12-20T12:07:08;11.80;99.90
30694;DHT22;17446;48.022;-1.740;2023-12-20T12:09:34;11.90;99.90
30694;DHT22;17446;48.022;-1.740;2023-12-20T12:12:00;11.90;99.90
30694;DHT22;17446;48.022;-1.740;2023-12-20T12:14:26;12.00;99.90
30694;DHT22;17446;48.022;-1.740;2023-12-20T12:16:52;12.00;99.90
30694;DHT22;17446;48.022;-1.740;2023-12-20T12:19:26;12.10;99.90
30694;DHT22;17446;48.022;-1.740;2023-12-20T12:22:04;12.20;99.90
30694;DHT22;17446;48.022;-1.740;2023-12-20T12:24:32;12.20;99.90
30694;DHT22;17446;48.022;-1.740;2023-12-20T12:26:58;12.30;99.90
30694;DHT22;17446;48.022;-1.740;2023-12-20T12:29:24;12.40;99.90
30694;DHT22;17446;48.022;-1.740;2023-12-20T12:31:50;12.50;99.90
30694;DHT22;17446;48.022;-1.740;2023-12-20T12:34:17;12.60;99.90
30694;DHT22;17446;48.022;-1.740;2023-12-20T12:36:43;12.70;99.90
30694;DHT22;17446;48.022;-1.740;2023-12-20T12:39:11;12.80;99.90
30694;DHT22;17446;48.022;-1.740;2023-12-20T12:41:37;12.80;99.90
30694;DHT22;17446;48.022;-1.740;2023-12-20T12:44:02;12.80;99.90
30694;DHT22;17446;48.022;-1.740;2023-12-20T12:46:29;12.90;99.90
30694;DHT22;17446;48.022;-1.740;2023-12-20T12:48:54;12.80;99.90
30694;DHT22;17446;48.022;-1.740;2023-12-20T12:51:20;12.70;99.90
30694;DHT22;17446;48.022;-1.740;2023-12-20T12:53:45;12.70;99.90
30694;DHT22;17446;48.022;-1.740;2023-12-20T12:56:12;12.70;99.90
30694;DHT22;17446;48.022;-1.740;2023-12-20T12:58:39;12.60;99.90
30694;DHT22;17446;48.022;-1.740;2023-12-20T13:01:04;12.70;99.90
30694;DHT22;17446;48.022;-1.740;2023-12-20T13:03:30;12.80;99.90
30694;DHT22;17446;48.022;-1.740;2023-12-20T13:05:56;12.90;99.90
30694;DHT22;17446;48.022;-1.740;2023-12-20T13:08:21;13.00;99.90
30694;DHT22;17446;48.022;-1.740;2023-12-20T13:10:47;13.00;99.90
30694;DHT22;17446;48.022;-1.740;2023-12-20T13:13:13;13.10;99.90
30694;DHT22;17446;48.022;-1.740;2023-12-20T13:15:38;13.10;99.90
30694;DHT22;17446;48.022;-1.740;2023-12-20T13:18:04;13.20;99.90
30694;DHT22;17446;48.022;-1.740;2023-12-20T13:20:31;13.20;99.90
30694;DHT22;17446;48.022;-1.740;2023-12-20T13:22:57;13.20;99.90
30694;DHT22;17446;48.022;-1.740;2023-12-20T13:25:22;13.20;99.90
30694;DHT22;17446;48.022;-1.740;2023-12-20T13:27:49;13.20;99.90
30694;DHT22;17446;48.022;-1.740;2023-12-20T13:30:16;13.30;99.90
30694;DHT22;17446;48.022;-1.740;2023-12-20T13:32:42;13.30;99.90
30694;DHT22;17446;48.022;-1.740;2023-12-20T13:35:08;13.30;99.90
30694;DHT22;17446;48.022;-1.740;2023-12-20T13:37:35;13.30;99.90
30694;DHT22;17446;48.022;-1.740;2023-12-20T13:40:00;13.20;99.90
30694;DHT22;17446;48.022;-1.740;2023-12-20T13:42:27;13.30;99.90
30694;DHT22;17446;48.022;-1.740;2023-12-20T13:44:53;13.20;99.90
30694;DHT22;17446;48.022;-1.740;2023-12-20T13:47:19;13.20;99.90
30694;DHT22;17446;48.022;-1.740;2023-12-20T13:49:45;13.20;99.90
30694;DHT22;17446;48.022;-1.740;2023-12-20T13:52:11;13.20;99.90
30694;DHT22;17446;48.022;-1.740;2023-12-20T13:54:37;13.10;99.90
30694;DHT22;17446;48.022;-1.740;2023-12-20T13:57:03;13.10;99.90
30694;DHT22;17446;48.022;-1.740;2023-12-20T13:59:29;13.10;99.90
30694;DHT22;17446;48.022;-1.740;2023-12-20T14:01:54;13.10;99.90
30694;DHT22;17446;48.022;-1.740;2023-12-20T14:04:20;13.20;99.90
30694;DHT22;17446;48.022;-1.740;2023-12-20T14:06:47;13.30;99.90
30694;DHT22;17446;48.022;-1.740;2023-12-20T14:09:12;13.40;99.90
30694;DHT22;17446;48.022;-1.740;2023-12-20T14:11:38;13.50;99.90
30694;DHT22;17446;48.022;-1.740;2023-12-20T14:14:07;13.60;99.90
30694;DHT22;17446;48.022;-1.740;2023-12-20T14:16:33;13.70;99.90
30694;DHT22;17446;48.022;-1.740;2023-12-20T14:18:59;13.80;99.90
30694;DHT22;17446;48.022;-1.740;2023-12-20T14:21:25;13.80;99.90
30694;DHT22;17446;48.022;-1.740;2023-12-20T14:23:50;13.90;99.90
30694;DHT22;17446;48.022;-1.740;2023-12-20T14:26:17;13.90;99.90
30694;DHT22;17446;48.022;-1.740;2023-12-20T14:28:43;14.00;99.90
30694;DHT22;17446;48.022;-1.740;2023-12-20T14:31:09;14.00;99.90
30694;DHT22;17446;48.022;-1.740;2023-12-20T14:33:35;14.00;99.90
30694;DHT22;17446;48.022;-1.740;2023-12-20T14:36:03;14.00;99.90
30694;DHT22;17446;48.022;-1.740;2023-12-20T14:38:31;14.00;99.90
30694;DHT22;17446;48.022;-1.740;2023-12-20T14:40:56;14.00;99.90
30694;DHT22;17446;48.022;-1.740;2023-12-20T14:43:22;13.90;99.90
30694;DHT22;17446;48.022;-1.740;2023-12-20T14:45:48;13.80;99.90
30694;DHT22;17446;48.022;-1.740;2023-12-20T14:48:14;13.80;99.90
30694;DHT22;17446;48.022;-1.740;2023-12-20T14:50:39;13.80;99.90
30694;DHT22;17446;48.022;-1.740;2023-12-20T14:53:08;13.70;99.90
30694;DHT22;17446;48.022;-1.740;2023-12-20T14:55:34;13.60;99.90
30694;DHT22;17446;48.022;-1.740;2023-12-20T14:58:00;13.60;99.90
30694;DHT22;17446;48.022;-1.740;2023-12-20T15:00:26;13.50;99.90
30694;DHT22;17446;48.022;-1.740;2023-12-20T15:02:52;13.50;99.90
30694;DHT22;17446;48.022;-1.740;2023-12-20T15:05:19;13.40;99.90
30694;DHT22;17446;48.022;-1.740;2023-12-20T15:07:45;13.40;99.90
30694;DHT22;17446;48.022;-1.740;2023-12-20T15:10:13;13.40;99.90
30694;DHT22;17446;48.022;-1.740;2023-12-20T15:12:39;13.30;99.90
30694;DHT22;17446;48.022;-1.740;2023-12-20T15:15:05;13.30;99.90
30694;DHT22;17446;48.022;-1.740;2023-12-20T15:17:31;13.20;99.90
30694;DHT22;17446;48.022;-1.740;2023-12-20T15:19:56;13.20;99.90
30694;DHT22;17446;48.022;-1.740;2023-12-20T15:22:22;13.10;99.90
30694;DHT22;17446;48.022;-1.740;2023-12-20T15:24:47;13.10;99.90